createdAt,value
2023-05-10T03:44:10.745Z,1.90
2023-05-10T03:47:14.127Z,1.62
2023-05-10T03:50:17.298Z,1.90
2023-05-10T03:53:20.608Z,1.52
2023-05-10T03:56:24.897Z,1.50
2023-05-10T03:59:28.104Z,1.42
2023-05-10T04:05:37.074Z,1.40
2023-05-10T04:08:39.878Z,1.65
2023-05-10T04:11:42.868Z,1.60
2023-05-10T04:14:45.513Z,1.52
2023-05-10T04:17:48.620Z,1.50
2023-05-10T04:20:51.673Z,1.87
2023-05-10T04:26:57.863Z,1.90
2023-05-10T04:30:01.686Z,1.80
2023-05-10T04:33:04.591Z,1.80
2023-05-10T04:36:07.944Z,1.90
2023-05-10T04:39:10.924Z,1.75
2023-05-10T04:42:15.852Z,1.25
2023-05-10T04:45:18.714Z,1.60
2023-05-10T04:48:21.698Z,1.73
2023-05-10T04:51:24.276Z,1.45
2023-05-10T04:54:27.433Z,1.62
2023-05-10T04:57:30.018Z,1.58
2023-05-10T05:00:36.170Z,1.60
2023-05-10T05:03:38.911Z,1.70
2023-05-10T05:06:41.973Z,1.48
2023-05-10T05:09:44.660Z,1.42
2023-05-10T05:12:47.598Z,1.77
2023-05-10T05:15:50.237Z,1.58
2023-05-10T05:18:53.181Z,2.08
2023-05-10T05:21:55.783Z,1.65
2023-05-10T05:25:03.577Z,1.65
2023-05-10T05:28:06.186Z,2.20
2023-05-10T05:31:09.385Z,1.90
2023-05-10T05:34:13.156Z,1.90
2023-05-10T05:37:23.254Z,1.92
2023-05-10T05:40:25.901Z,1.85
2023-05-10T05:43:28.856Z,2.28
2023-05-10T05:46:31.650Z,1.70
2023-05-10T05:52:37.250Z,1.80
2023-05-10T05:58:42.535Z,1.85
2023-05-10T06:01:45.575Z,2.03
2023-05-10T06:07:51.229Z,1.62
2023-05-10T06:10:54.110Z,1.90
2023-05-10T06:13:57.014Z,1.60
2023-05-10T06:20:04.543Z,2.00
2023-05-10T06:23:07.963Z,2.08
2023-05-10T06:26:11.054Z,2.03
2023-05-10T06:29:14.168Z,1.67
2023-05-10T06:32:16.797Z,2.12
2023-05-10T06:35:19.883Z,1.92
2023-05-10T06:38:22.817Z,2.10
2023-05-10T06:44:28.255Z,1.95
2023-05-10T06:50:34.350Z,1.83
2023-05-10T06:53:37.392Z,2.03
2023-05-10T06:56:39.965Z,2.30
2023-05-10T06:59:42.865Z,1.87
2023-05-10T07:02:45.802Z,2.30
2023-05-10T07:05:48.755Z,1.90
2023-05-10T07:08:51.507Z,1.87
2023-05-10T07:11:54.498Z,2.28
2023-05-10T07:14:57.180Z,2.20
2023-05-10T07:21:04.109Z,1.60
2023-05-10T07:24:07.206Z,1.65
2023-05-10T07:27:10.170Z,1.98
2023-05-10T07:30:13.878Z,1.67
2023-05-10T07:33:17.050Z,2.28
2023-05-10T07:36:20.063Z,1.98
2023-05-10T07:39:27.792Z,2.03
2023-05-10T07:42:31.112Z,1.70
2023-05-10T07:45:34.676Z,1.70
2023-05-10T07:48:38.273Z,2.00
2023-05-10T07:51:41.509Z,1.85
2023-05-10T07:54:44.521Z,1.70
2023-05-10T07:57:47.217Z,1.90
2023-05-10T08:00:50.437Z,2.15
2023-05-10T08:03:54.684Z,1.87
2023-05-10T08:06:57.522Z,1.73
2023-05-10T08:10:00.831Z,1.60
2023-05-10T08:13:03.397Z,2.10
2023-05-10T08:19:09.107Z,1.90
2023-05-10T08:22:12.160Z,1.60
2023-05-10T08:25:14.968Z,1.48
2023-05-10T08:28:18.947Z,1.80
2023-05-10T08:31:21.665Z,1.37
2023-05-10T08:34:25.027Z,1.40
2023-05-10T08:37:31.139Z,1.62
2023-05-10T08:40:34.296Z,1.48
2023-05-10T08:43:37.131Z,1.48
2023-05-10T08:46:46.307Z,1.98
2023-05-10T08:49:52.314Z,1.33
2023-05-10T08:52:58.700Z,1.62
2023-05-10T08:56:02.881Z,2.10
2023-05-10T08:59:05.868Z,1.45
2023-05-10T09:02:12.663Z,1.70
2023-05-10T09:05:17.221Z,1.58
2023-05-10T09:08:21.351Z,1.35
2023-05-10T09:11:25.327Z,1.60
2023-05-10T09:14:28.146Z,1.40
2023-05-10T09:17:31.340Z,1.60
2023-05-10T09:23:38.865Z,1.50
2023-05-10T09:26:53.045Z,1.60
2023-05-10T09:29:56.790Z,1.62
2023-05-10T09:33:01.321Z,1.27
2023-05-10T09:36:09.261Z,1.55
2023-05-10T09:39:11.856Z,1.27
2023-05-10T09:45:23.085Z,1.60
2023-05-10T09:48:26.097Z,1.20
2023-05-10T09:51:28.968Z,1.50
2023-05-10T09:54:33.358Z,1.75
2023-05-10T09:57:35.917Z,1.55
2023-05-10T10:03:44.488Z,1.23
2023-05-10T10:06:47.127Z,1.70
2023-05-10T10:12:53.109Z,1.07
2023-05-10T10:15:56.069Z,1.48
2023-05-10T10:18:59.589Z,1.20
2023-05-10T10:22:02.462Z,1.35
2023-05-10T10:28:28.471Z,1.40
2023-05-10T10:31:47.399Z,1.00
2023-05-10T10:34:51.046Z,1.17
2023-05-10T10:37:53.947Z,1.23
2023-05-10T10:41:08.910Z,1.15
2023-05-10T10:44:23.621Z,1.15
2023-05-10T10:47:32.097Z,1.17
2023-05-10T10:50:45.920Z,1.25
2023-05-10T10:53:49.338Z,1.20
2023-05-10T10:57:24.469Z,1.15
2023-05-10T11:00:30.204Z,0.98
2023-05-10T11:03:32.790Z,0.90
2023-05-10T11:06:37.237Z,1.10
2023-05-10T11:09:41.394Z,1.30
2023-05-10T11:12:55.174Z,1.05
2023-05-10T11:15:58.340Z,1.50
2023-05-10T11:19:07.845Z,1.10
2023-05-10T11:22:14.809Z,0.93
2023-05-10T11:25:17.671Z,1.17
2023-05-10T11:28:20.801Z,0.90
2023-05-10T11:31:24.915Z,0.93
2023-05-10T11:34:31.342Z,1.40
2023-05-10T11:37:35.390Z,0.90
2023-05-10T11:40:39.322Z,0.90
2023-05-10T11:43:43.175Z,1.02
2023-05-10T11:46:45.917Z,0.95
2023-05-10T11:49:49.432Z,1.35
2023-05-10T11:53:01.209Z,0.80
2023-05-10T11:56:08.798Z,1.20
2023-05-10T11:59:11.614Z,1.30
2023-05-10T12:02:15.271Z,0.98
2023-05-10T12:05:18.872Z,0.88
2023-05-10T12:08:26.720Z,1.08
2023-05-10T12:11:29.831Z,1.17
2023-05-10T12:14:36.197Z,0.77
2023-05-10T12:17:43.324Z,0.85
2023-05-10T12:20:46.126Z,1.00
2023-05-10T12:23:54.417Z,0.98
2023-05-10T12:26:57.067Z,1.10
2023-05-10T12:30:04.085Z,0.90
2023-05-10T12:33:12.834Z,0.80
2023-05-10T12:36:19.008Z,0.93
2023-05-10T12:39:21.806Z,0.77
2023-05-10T12:42:26.190Z,1.20
2023-05-10T12:45:28.802Z,0.80
2023-05-10T12:48:32.799Z,0.98
2023-05-10T12:51:37.980Z,1.00
2023-05-10T12:54:40.921Z,0.93
2023-05-10T12:57:45.578Z,0.93
2023-05-10T13:00:48.659Z,0.70
2023-05-10T13:03:51.546Z,0.60
2023-05-10T13:06:56.492Z,1.02
2023-05-10T13:09:59.119Z,0.80
2023-05-10T13:13:04.136Z,1.08
2023-05-10T13:16:07.188Z,0.60
2023-05-10T13:19:10.256Z,0.70
2023-05-10T13:22:13.159Z,1.25
2023-05-10T13:25:16.049Z,0.60
2023-05-10T13:28:18.564Z,0.90
2023-05-10T13:31:21.704Z,0.70
2023-05-10T13:34:25.241Z,0.68
2023-05-10T13:37:28.136Z,0.90
2023-05-10T13:40:30.829Z,0.80
2023-05-10T13:43:33.705Z,0.70
2023-05-10T13:46:36.324Z,0.82
2023-05-10T13:49:39.630Z,0.80
2023-05-10T13:52:42.198Z,0.62
2023-05-10T13:55:45.162Z,0.90
2023-05-10T13:58:48.559Z,0.80
2023-05-10T14:01:51.755Z,1.17
2023-05-10T14:04:54.618Z,0.50
2023-05-10T14:07:57.379Z,0.60
2023-05-10T14:11:00.560Z,0.60
2023-05-10T14:14:15.493Z,1.50
2023-05-10T14:17:21.205Z,0.52
2023-05-10T14:20:24.058Z,0.70
2023-05-10T14:23:27.251Z,0.70
2023-05-10T14:26:32.440Z,0.55
2023-05-10T14:29:35.370Z,0.80
2023-05-10T14:32:38.233Z,0.70
2023-05-10T14:35:41.639Z,0.70
2023-05-10T14:38:44.282Z,0.70
2023-05-10T14:41:48.231Z,0.70
2023-05-10T14:44:50.867Z,0.57
2023-05-10T14:47:55.937Z,0.52
2023-05-10T14:50:58.628Z,0.50
2023-05-10T14:54:01.730Z,0.50
2023-05-10T14:57:04.309Z,0.57
2023-05-10T15:00:08.184Z,0.60
2023-05-10T15:03:11.496Z,0.70
2023-05-10T15:06:18.134Z,0.65
2023-05-10T15:09:20.798Z,0.47
2023-05-10T15:12:23.732Z,0.43
2023-05-10T15:15:26.388Z,0.60
2023-05-10T15:18:29.332Z,0.70
2023-05-10T15:21:36.144Z,0.85
2023-05-10T15:24:39.230Z,0.70
2023-05-10T15:30:45.075Z,0.60
2023-05-10T15:33:47.714Z,0.62
2023-05-10T15:36:50.619Z,0.70
